sensor_id;sensor_type;location;lat;lon;timestamp;temperature;humidity
10171;DHT22;5127;50.922;6.988;2024-02-26T00:00:26;11.30;69.90
10171;DHT22;5127;50.922;6.988;2024-02-26T00:02:54;11.30;70.00
10171;DHT22;5127;50.922;6.988;2024-02-26T00:05:22;11.30;70.10
10171;DHT22;5127;50.922;6.988;2024-02-26T00:07:49;11.20;70.20
10171;DHT22;5127;50.922;6.988;2024-02-26T00:10:17;11.20;70.40
10171;DHT22;5127;50.922;6.988;2024-02-26T00:12:44;11.20;70.60
10171;DHT22;5127;50.922;6.988;2024-02-26T00:15:13;11.20;70.60
10171;DHT22;5127;50.922;6.988;2024-02-26T00:17:40;11.10;70.60
10171;DHT22;5127;50.922;6.988;2024-02-26T00:20:09;11.10;70.70
10171;DHT22;5127;50.922;6.988;2024-02-26T00:22:37;11.10;70.80
10171;DHT22;5127;50.922;6.988;2024-02-26T00:25:05;11.00;70.40
10171;DHT22;5127;50.922;6.988;2024-02-26T00:27:33;11.00;70.30
10171;DHT22;5127;50.922;6.988;2024-02-26T00:30:00;11.00;70.20
10171;DHT22;5127;50.922;6.988;2024-02-26T00:32:29;11.00;70.10
10171;DHT22;5127;50.922;6.988;2024-02-26T00:34:56;10.90;70.00
10171;DHT22;5127;50.922;6.988;2024-02-26T00:37:24;10.90;70.00
10171;DHT22;5127;50.922;6.988;2024-02-26T00:39:51;10.80;70.00
10171;DHT22;5127;50.922;6.988;2024-02-26T00:42:19;10.80;69.70
10171;DHT22;5127;50.922;6.988;2024-02-26T00:44:46;10.80;69.60
10171;DHT22;5127;50.922;6.988;2024-02-26T00:47:13;10.80;70.00
10171;DHT22;5127;50.922;6.988;2024-02-26T00:49:42;10.70;70.00
10171;DHT22;5127;50.922;6.988;2024-02-26T00:52:09;10.70;69.80
10171;DHT22;5127;50.922;6.988;2024-02-26T00:54:36;10.70;70.10
10171;DHT22;5127;50.922;6.988;2024-02-26T00:57:04;10.70;70.30
10171;DHT22;5127;50.922;6.988;2024-02-26T00:59:31;10.70;70.40
10171;DHT22;5127;50.922;6.988;2024-02-26T01:01:59;10.70;70.60
10171;DHT22;5127;50.922;6.988;2024-02-26T01:04:28;10.60;70.70
10171;DHT22;5127;50.922;6.988;2024-02-26T01:06:56;10.60;70.90
10171;DHT22;5127;50.922;6.988;2024-02-26T01:09:24;10.60;70.90
10171;DHT22;5127;50.922;6.988;2024-02-26T01:11:51;10.70;71.10
10171;DHT22;5127;50.922;6.988;2024-02-26T01:14:18;10.60;71.00
10171;DHT22;5127;50.922;6.988;2024-02-26T01:16:46;10.60;71.00
10171;DHT22;5127;50.922;6.988;2024-02-26T01:19:13;10.60;71.20
10171;DHT22;5127;50.922;6.988;2024-02-26T01:21:41;10.60;71.30
10171;DHT22;5127;50.922;6.988;2024-02-26T01:24:10;10.60;71.40
10171;DHT22;5127;50.922;6.988;2024-02-26T01:26:37;10.60;71.20
10171;DHT22;5127;50.922;6.988;2024-02-26T01:29:05;10.60;71.40
10171;DHT22;5127;50.922;6.988;2024-02-26T01:31:32;10.50;71.40
10171;DHT22;5127;50.922;6.988;2024-02-26T01:33:59;10.50;71.60
10171;DHT22;5127;50.922;6.988;2024-02-26T01:36:26;10.50;71.70
10171;DHT22;5127;50.922;6.988;2024-02-26T01:38:54;10.60;72.10
10171;DHT22;5127;50.922;6.988;2024-02-26T01:41:25;10.50;71.90
10171;DHT22;5127;50.922;6.988;2024-02-26T01:43:52;10.60;71.90
10171;DHT22;5127;50.922;6.988;2024-02-26T01:46:20;10.50;71.80
10171;DHT22;5127;50.922;6.988;2024-02-26T01:48:47;10.50;71.90
10171;DHT22;5127;50.922;6.988;2024-02-26T01:51:16;10.50;71.90
10171;DHT22;5127;50.922;6.988;2024-02-26T01:53:44;10.50;72.20
10171;DHT22;5127;50.922;6.988;2024-02-26T01:56:12;10.50;72.20
10171;DHT22;5127;50.922;6.988;2024-02-26T01:58:41;10.50;72.20
10171;DHT22;5127;50.922;6.988;2024-02-26T02:01:08;10.40;72.00
10171;DHT22;5127;50.922;6.988;2024-02-26T02:03:36;10.50;72.20
10171;DHT22;5127;50.922;6.988;2024-02-26T02:06:04;10.40;72.20
10171;DHT22;5127;50.922;6.988;2024-02-26T02:08:32;10.40;72.20
10171;DHT22;5127;50.922;6.988;2024-02-26T02:11:01;10.40;72.30
10171;DHT22;5127;50.922;6.988;2024-02-26T02:13:28;10.40;72.50
10171;DHT22;5127;50.922;6.988;2024-02-26T02:15:57;10.30;72.30
10171;DHT22;5127;50.922;6.988;2024-02-26T02:18:25;10.30;72.30
10171;DHT22;5127;50.922;6.988;2024-02-26T02:20:53;10.30;72.40
10171;DHT22;5127;50.922;6.988;2024-02-26T02:23:22;10.30;72.40
10171;DHT22;5127;50.922;6.988;2024-02-26T02:25:49;10.30;72.50
10171;DHT22;5127;50.922;6.988;2024-02-26T02:28:16;10.20;72.50
10171;DHT22;5127;50.922;6.988;2024-02-26T02:30:44;10.30;72.70
10171;DHT22;5127;50.922;6.988;2024-02-26T02:33:11;10.20;72.70
10171;DHT22;5127;50.922;6.988;2024-02-26T02:35:39;10.30;73.00
10171;DHT22;5127;50.922;6.988;2024-02-26T02:38:08;10.20;73.00
10171;DHT22;5127;50.922;6.988;2024-02-26T02:40:35;10.20;73.00
10171;DHT22;5127;50.922;6.988;2024-02-26T02:43:02;10.30;73.30
10171;DHT22;5127;50.922;6.988;2024-02-26T02:45:30;10.20;73.20
10171;DHT22;5127;50.922;6.988;2024-02-26T02:47:58;10.20;73.00
10171;DHT22;5127;50.922;6.988;2024-02-26T02:50:25;10.20;73.20
10171;DHT22;5127;50.922;6.988;2024-02-26T02:52:54;10.20;73.20
10171;DHT22;5127;50.922;6.988;2024-02-26T02:55:23;10.20;73.30
10171;DHT22;5127;50.922;6.988;2024-02-26T02:57:51;10.20;73.30
10171;DHT22;5127;50.922;6.988;2024-02-26T03:00:18;10.20;73.40
10171;DHT22;5127;50.922;6.988;2024-02-26T03:02:45;10.20;73.50
10171;DHT22;5127;50.922;6.988;2024-02-26T03:05:13;10.20;73.50
10171;DHT22;5127;50.922;6.988;2024-02-26T03:07:40;10.20;73.60
10171;DHT22;5127;50.922;6.988;2024-02-26T03:10:08;10.20;73.70
10171;DHT22;5127;50.922;6.988;2024-02-26T03:12:36;10.20;73.80
10171;DHT22;5127;50.922;6.988;2024-02-26T03:15:04;10.10;73.70
10171;DHT22;5127;50.922;6.988;2024-02-26T03:17:31;10.10;73.90
10171;DHT22;5127;50.922;6.988;2024-02-26T03:19:59;10.10;73.90
10171;DHT22;5127;50.922;6.988;2024-02-26T03:22:26;10.10;74.10
10171;DHT22;5127;50.922;6.988;2024-02-26T03:24:53;10.10;74.20
10171;DHT22;5127;50.922;6.988;2024-02-26T03:27:21;10.10;74.30
10171;DHT22;5127;50.922;6.988;2024-02-26T03:29:49;10.10;74.70
10171;DHT22;5127;50.922;6.988;2024-02-26T03:32:17;10.10;74.70
10171;DHT22;5127;50.922;6.988;2024-02-26T03:34:44;10.10;74.80
10171;DHT22;5127;50.922;6.988;2024-02-26T03:37:11;10.10;74.70
10171;DHT22;5127;50.922;6.988;2024-02-26T03:39:38;10.00;74.90
10171;DHT22;5127;50.922;6.988;2024-02-26T03:42:06;10.00;75.00
10171;DHT22;5127;50.922;6.988;2024-02-26T03:44:33;10.00;75.10
10171;DHT22;5127;50.922;6.988;2024-02-26T03:47:02;10.00;75.20
10171;DHT22;5127;50.922;6.988;2024-02-26T03:49:30;10.00;75.20
10171;DHT22;5127;50.922;6.988;2024-02-26T03:51:57;10.00;75.30
10171;DHT22;5127;50.922;6.988;2024-02-26T03:54:25;10.00;75.40
10171;DHT22;5127;50.922;6.988;2024-02-26T03:56:52;10.00;75.60
10171;DHT22;5127;50.922;6.988;2024-02-26T03:59:19;10.00;75.80
10171;DHT22;5127;50.922;6.988;2024-02-26T04:01:48;10.00;75.90
10171;DHT22;5127;50.922;6.988;2024-02-26T04:04:16;9.90;77.00
10171;DHT22;5127;50.922;6.988;2024-02-26T04:06:44;10.00;76.00
10171;DHT22;5127;50.922;6.988;2024-02-26T04:09:13;9.90;77.20
10171;DHT22;5127;50.922;6.988;2024-02-26T04:11:41;9.90;77.30
10171;DHT22;5127;50.922;6.988;2024-02-26T04:14:09;10.00;77.10
10171;DHT22;5127;50.922;6.988;2024-02-26T04:16:38;10.00;76.50
10171;DHT22;5127;50.922;6.988;2024-02-26T04:19:06;9.90;77.60
10171;DHT22;5127;50.922;6.988;2024-02-26T04:21:34;9.90;77.90
10171;DHT22;5127;50.922;6.988;2024-02-26T04:24:02;10.00;77.50
10171;DHT22;5127;50.922;6.988;2024-02-26T04:26:32;9.90;78.00
10171;DHT22;5127;50.922;6.988;2024-02-26T04:28:59;9.90;78.10
10171;DHT22;5127;50.922;6.988;2024-02-26T04:31:27;9.90;78.10
10171;DHT22;5127;50.922;6.988;2024-02-26T04:33:54;10.00;77.20
10171;DHT22;5127;50.922;6.988;2024-02-26T04:36:22;9.90;78.20
10171;DHT22;5127;50.922;6.988;2024-02-26T04:38:50;9.90;78.40
10171;DHT22;5127;50.922;6.988;2024-02-26T04:41:20;9.90;78.40
10171;DHT22;5127;50.922;6.988;2024-02-26T04:43:47;9.80;78.50
10171;DHT22;5127;50.922;6.988;2024-02-26T04:46:15;9.80;78.60
10171;DHT22;5127;50.922;6.988;2024-02-26T04:48:42;9.80;78.70
10171;DHT22;5127;50.922;6.988;2024-02-26T04:51:11;9.80;78.90
10171;DHT22;5127;50.922;6.988;2024-02-26T04:53:39;9.80;78.90
10171;DHT22;5127;50.922;6.988;2024-02-26T04:56:08;9.80;79.00
10171;DHT22;5127;50.922;6.988;2024-02-26T04:58:35;9.70;79.00
10171;DHT22;5127;50.922;6.988;2024-02-26T05:01:03;9.80;79.10
10171;DHT22;5127;50.922;6.988;2024-02-26T05:03:30;9.70;79.00
10171;DHT22;5127;50.922;6.988;2024-02-26T05:05:57;9.70;79.20
10171;DHT22;5127;50.922;6.988;2024-02-26T05:08:26;9.70;79.30
10171;DHT22;5127;50.922;6.988;2024-02-26T05:10:54;9.70;79.30
10171;DHT22;5127;50.922;6.988;2024-02-26T05:13:23;9.70;79.60
10171;DHT22;5127;50.922;6.988;2024-02-26T05:15:50;9.70;79.60
10171;DHT22;5127;50.922;6.988;2024-02-26T05:18:18;9.70;79.60
10171;DHT22;5127;50.922;6.988;2024-02-26T05:20:45;9.60;79.60
10171;DHT22;5127;50.922;6.988;2024-02-26T05:23:13;9.60;79.70
10171;DHT22;5127;50.922;6.988;2024-02-26T05:25:40;9.60;79.80
10171;DHT22;5127;50.922;6.988;2024-02-26T05:28:08;9.60;79.90
10171;DHT22;5127;50.922;6.988;2024-02-26T05:30:36;9.60;80.00
10171;DHT22;5127;50.922;6.988;2024-02-26T05:33:06;9.60;80.00
10171;DHT22;5127;50.922;6.988;2024-02-26T05:35:33;9.60;80.00
10171;DHT22;5127;50.922;6.988;2024-02-26T05:38:01;9.50;80.00
10171;DHT22;5127;50.922;6.988;2024-02-26T05:40:28;9.50;80.10
10171;DHT22;5127;50.922;6.988;2024-02-26T05:42:56;9.50;80.20
10171;DHT22;5127;50.922;6.988;2024-02-26T05:45:23;9.50;80.20
10171;DHT22;5127;50.922;6.988;2024-02-26T05:47:51;9.60;80.40
10171;DHT22;5127;50.922;6.988;2024-02-26T05:50:19;9.50;80.40
10171;DHT22;5127;50.922;6.988;2024-02-26T05:52:46;9.60;80.50
10171;DHT22;5127;50.922;6.988;2024-02-26T05:55:13;9.50;80.40
10171;DHT22;5127;50.922;6.988;2024-02-26T05:57:40;9.50;80.40
10171;DHT22;5127;50.922;6.988;2024-02-26T06:00:08;9.50;80.50
10171;DHT22;5127;50.922;6.988;2024-02-26T06:02:39;9.40;80.50
10171;DHT22;5127;50.922;6.988;2024-02-26T06:05:08;9.40;80.60
10171;DHT22;5127;50.922;6.988;2024-02-26T06:07:35;9.40;80.60
10171;DHT22;5127;50.922;6.988;2024-02-26T06:10:03;9.40;80.70
10171;DHT22;5127;50.922;6.988;2024-02-26T06:12:30;9.40;80.70
10171;DHT22;5127;50.922;6.988;2024-02-26T06:14:58;9.40;80.80
10171;DHT22;5127;50.922;6.988;2024-02-26T06:17:27;9.40;80.80
10171;DHT22;5127;50.922;6.988;2024-02-26T06:19:54;9.40;80.80
10171;DHT22;5127;50.922;6.988;2024-02-26T06:22:23;9.40;80.90
10171;DHT22;5127;50.922;6.988;2024-02-26T06:24:50;9.40;81.00
10171;DHT22;5127;50.922;6.988;2024-02-26T06:27:18;9.40;81.00
10171;DHT22;5127;50.922;6.988;2024-02-26T06:29:45;9.40;81.10
10171;DHT22;5127;50.922;6.988;2024-02-26T06:32:13;9.30;81.00
10171;DHT22;5127;50.922;6.988;2024-02-26T06:34:40;9.30;81.00
10171;DHT22;5127;50.922;6.988;2024-02-26T06:37:08;9.30;81.10
10171;DHT22;5127;50.922;6.988;2024-02-26T06:39:37;9.30;81.10
10171;DHT22;5127;50.922;6.988;2024-02-26T06:42:05;9.30;81.20
10171;DHT22;5127;50.922;6.988;2024-02-26T06:44:33;9.30;81.30
10171;DHT22;5127;50.922;6.988;2024-02-26T06:47:00;9.30;81.30
10171;DHT22;5127;50.922;6.988;2024-02-26T06:49:28;9.30;81.40
10171;DHT22;5127;50.922;6.988;2024-02-26T06:51:55;9.30;81.40
10171;DHT22;5127;50.922;6.988;2024-02-26T06:54:23;9.30;81.50
10171;DHT22;5127;50.922;6.988;2024-02-26T06:56:51;9.30;81.50
10171;DHT22;5127;50.922;6.988;2024-02-26T06:59:19;9.30;81.50
10171;DHT22;5127;50.922;6.988;2024-02-26T07:01:47;9.20;81.50
10171;DHT22;5127;50.922;6.988;2024-02-26T07:04:14;9.30;81.70
10171;DHT22;5127;50.922;6.988;2024-02-26T07:06:41;9.30;81.70
10171;DHT22;5127;50.922;6.988;2024-02-26T07:09:09;9.30;81.70
10171;DHT22;5127;50.922;6.988;2024-02-26T07:11:38;9.30;81.80
10171;DHT22;5127;50.922;6.988;2024-02-26T07:14:09;9.30;81.90
10171;DHT22;5127;50.922;6.988;2024-02-26T07:16:36;9.30;81.80
10171;DHT22;5127;50.922;6.988;2024-02-26T07:19:04;9.30;81.90
10171;DHT22;5127;50.922;6.988;2024-02-26T07:21:31;9.30;82.00
10171;DHT22;5127;50.922;6.988;2024-02-26T07:23:58;9.30;82.00
10171;DHT22;5127;50.922;6.988;2024-02-26T07:26:26;9.30;82.00
10171;DHT22;5127;50.922;6.988;2024-02-26T07:28:55;9.30;82.00
10171;DHT22;5127;50.922;6.988;2024-02-26T07:31:24;9.40;82.00
10171;DHT22;5127;50.922;6.988;2024-02-26T07:33:51;9.40;82.10
10171;DHT22;5127;50.922;6.988;2024-02-26T07:36:19;9.40;82.70
10171;DHT22;5127;50.922;6.988;2024-02-26T07:38:47;9.40;82.00
10171;DHT22;5127;50.922;6.988;2024-02-26T07:41:14;9.40;82.00
10171;DHT22;5127;50.922;6.988;2024-02-26T07:43:41;9.30;81.90
10171;DHT22;5127;50.922;6.988;2024-02-26T07:46:11;9.30;81.90
10171;DHT22;5127;50.922;6.988;2024-02-26T07:48:40;9.30;82.00
10171;DHT22;5127;50.922;6.988;2024-02-26T07:51:07;9.30;82.00
10171;DHT22;5127;50.922;6.988;2024-02-26T07:53:35;9.30;82.10
10171;DHT22;5127;50.922;6.988;2024-02-26T07:56:02;9.30;82.10
10171;DHT22;5127;50.922;6.988;2024-02-26T07:58:29;9.30;82.20
10171;DHT22;5127;50.922;6.988;2024-02-26T08:00:57;9.30;82.30
10171;DHT22;5127;50.922;6.988;2024-02-26T08:03:24;9.30;82.40
10171;DHT22;5127;50.922;6.988;2024-02-26T08:05:53;9.30;82.40
10171;DHT22;5127;50.922;6.988;2024-02-26T08:08:20;9.40;82.60
10171;DHT22;5127;50.922;6.988;2024-02-26T08:10:48;9.40;82.60
10171;DHT22;5127;50.922;6.988;2024-02-26T08:13:15;9.40;82.60
10171;DHT22;5127;50.922;6.988;2024-02-26T08:15:42;9.30;82.50
10171;DHT22;5127;50.922;6.988;2024-02-26T08:18:10;9.30;82.60
10171;DHT22;5127;50.922;6.988;2024-02-26T08:20:37;9.40;82.70
10171;DHT22;5127;50.922;6.988;2024-02-26T08:23:06;9.40;82.50
10171;DHT22;5127;50.922;6.988;2024-02-26T08:25:33;9.30;82.40
10171;DHT22;5127;50.922;6.988;2024-02-26T08:28:00;9.40;82.60
10171;DHT22;5127;50.922;6.988;2024-02-26T08:30:28;9.40;82.40
10171;DHT22;5127;50.922;6.988;2024-02-26T08:32:55;9.30;82.40
10171;DHT22;5127;50.922;6.988;2024-02-26T08:35:22;9.40;82.70
10171;DHT22;5127;50.922;6.988;2024-02-26T08:37:49;9.30;82.60
10171;DHT22;5127;50.922;6.988;2024-02-26T08:40:18;9.40;82.70
10171;DHT22;5127;50.922;6.988;2024-02-26T08:42:46;9.40;82.90
10171;DHT22;5127;50.922;6.988;2024-02-26T08:45:15;9.30;82.90
10171;DHT22;5127;50.922;6.988;2024-02-26T08:47:44;9.40;83.00
10171;DHT22;5127;50.922;6.988;2024-02-26T08:50:12;9.40;83.00
10171;DHT22;5127;50.922;6.988;2024-02-26T08:52:39;9.40;83.00
10171;DHT22;5127;50.922;6.988;2024-02-26T08:55:07;9.40;83.00
10171;DHT22;5127;50.922;6.988;2024-02-26T08:57:36;9.50;83.10
10171;DHT22;5127;50.922;6.988;2024-02-26T09:00:05;9.50;83.10
10171;DHT22;5127;50.922;6.988;2024-02-26T09:02:33;9.50;83.10
10171;DHT22;5127;50.922;6.988;2024-02-26T09:05:00;9.50;83.20
10171;DHT22;5127;50.922;6.988;2024-02-26T09:07:27;9.50;83.10
10171;DHT22;5127;50.922;6.988;2024-02-26T09:09:54;9.50;83.30
10171;DHT22;5127;50.922;6.988;2024-02-26T09:12:22;9.50;83.30
10171;DHT22;5127;50.922;6.988;2024-02-26T09:14:51;9.50;83.40
10171;DHT22;5127;50.922;6.988;2024-02-26T09:17:18;9.50;83.40
10171;DHT22;5127;50.922;6.988;2024-02-26T09:19:46;9.60;83.50
10171;DHT22;5127;50.922;6.988;2024-02-26T09:22:13;9.60;83.50
10171;DHT22;5127;50.922;6.988;2024-02-26T09:24:40;9.60;83.50
10171;DHT22;5127;50.922;6.988;2024-02-26T09:27:08;9.60;83.40
10171;DHT22;5127;50.922;6.988;2024-02-26T09:29:35;9.60;83.30
10171;DHT22;5127;50.922;6.988;2024-02-26T09:32:04;9.60;83.50
10171;DHT22;5127;50.922;6.988;2024-02-26T09:34:32;9.60;83.40
10171;DHT22;5127;50.922;6.988;2024-02-26T09:36:59;9.60;83.50
10171;DHT22;5127;50.922;6.988;2024-02-26T09:39:27;9.60;83.50
10171;DHT22;5127;50.922;6.988;2024-02-26T09:41:55;9.60;83.50
10171;DHT22;5127;50.922;6.988;2024-02-26T09:44:24;9.60;83.50
10171;DHT22;5127;50.922;6.988;2024-02-26T09:46:52;9.60;83.50
10171;DHT22;5127;50.922;6.988;2024-02-26T09:49:23;9.60;83.50
10171;DHT22;5127;50.922;6.988;2024-02-26T09:51:52;9.60;83.40
10171;DHT22;5127;50.922;6.988;2024-02-26T09:54:21;9.60;83.50
10171;DHT22;5127;50.922;6.988;2024-02-26T09:56:50;9.60;83.40
10171;DHT22;5127;50.922;6.988;2024-02-26T09:59:18;9.60;83.50
10171;DHT22;5127;50.922;6.988;2024-02-26T10:01:47;9.60;84.20
10171;DHT22;5127;50.922;6.988;2024-02-26T10:04:15;9.60;83.50
10171;DHT22;5127;50.922;6.988;2024-02-26T10:06:45;9.60;83.70
10171;DHT22;5127;50.922;6.988;2024-02-26T10:09:12;9.60;83.70
10171;DHT22;5127;50.922;6.988;2024-02-26T10:11:42;9.60;83.70
10171;DHT22;5127;50.922;6.988;2024-02-26T10:14:10;9.60;83.80
10171;DHT22;5127;50.922;6.988;2024-02-26T10:16:38;9.70;83.90
10171;DHT22;5127;50.922;6.988;2024-02-26T10:19:05;9.70;84.00
10171;DHT22;5127;50.922;6.988;2024-02-26T10:21:33;9.70;84.00
10171;DHT22;5127;50.922;6.988;2024-02-26T10:24:02;9.70;84.00
10171;DHT22;5127;50.922;6.988;2024-02-26T10:26:30;9.70;84.00
10171;DHT22;5127;50.922;6.988;2024-02-26T10:28:59;9.70;84.00
10171;DHT22;5127;50.922;6.988;2024-02-26T10:31:30;9.80;84.20
10171;DHT22;5127;50.922;6.988;2024-02-26T10:33:57;9.80;84.20
10171;DHT22;5127;50.922;6.988;2024-02-26T10:36:26;9.80;84.30
10171;DHT22;5127;50.922;6.988;2024-02-26T10:38:54;9.80;84.40
10171;DHT22;5127;50.922;6.988;2024-02-26T10:41:23;9.90;84.70
10171;DHT22;5127;50.922;6.988;2024-02-26T10:43:50;9.90;84.70
10171;DHT22;5127;50.922;6.988;2024-02-26T10:46:18;9.90;84.80
10171;DHT22;5127;50.922;6.988;2024-02-26T10:48:50;9.90;84.80
10171;DHT22;5127;50.922;6.988;2024-02-26T10:51:22;10.00;83.60
10171;DHT22;5127;50.922;6.988;2024-02-26T10:53:55;10.10;83.90
10171;DHT22;5127;50.922;6.988;2024-02-26T10:56:27;10.10;83.90
10171;DHT22;5127;50.922;6.988;2024-02-26T10:58:55;10.10;83.90
10171;DHT22;5127;50.922;6.988;2024-02-26T11:01:24;10.10;83.80
10171;DHT22;5127;50.922;6.988;2024-02-26T11:03:52;10.20;83.70
10171;DHT22;5127;50.922;6.988;2024-02-26T11:06:21;10.20;83.70
10171;DHT22;5127;50.922;6.988;2024-02-26T11:08:49;10.20;83.50
10171;DHT22;5127;50.922;6.988;2024-02-26T11:11:17;10.20;83.70
10171;DHT22;5127;50.922;6.988;2024-02-26T11:13:47;10.20;83.60
10171;DHT22;5127;50.922;6.988;2024-02-26T11:16:18;10.30;83.70
10171;DHT22;5127;50.922;6.988;2024-02-26T11:18:46;10.30;83.70
10171;DHT22;5127;50.922;6.988;2024-02-26T11:21:16;10.30;83.70
10171;DHT22;5127;50.922;6.988;2024-02-26T11:23:45;10.30;83.90
10171;DHT22;5127;50.922;6.988;2024-02-26T11:26:15;10.30;83.80
10171;DHT22;5127;50.922;6.988;2024-02-26T11:28:45;10.40;84.00
10171;DHT22;5127;50.922;6.988;2024-02-26T11:31:13;10.40;83.80
10171;DHT22;5127;50.922;6.988;2024-02-26T11:33:41;10.40;83.80
10171;DHT22;5127;50.922;6.988;2024-02-26T11:36:09;10.50;84.10
10171;DHT22;5127;50.922;6.988;2024-02-26T11:38:36;10.50;84.00
10171;DHT22;5127;50.922;6.988;2024-02-26T11:41:08;10.50;84.10
10171;DHT22;5127;50.922;6.988;2024-02-26T11:43:53;10.50;84.10
10171;DHT22;5127;50.922;6.988;2024-02-26T11:46:28;10.60;83.50
10171;DHT22;5127;50.922;6.988;2024-02-26T11:48:58;10.60;83.80
10171;DHT22;5127;50.922;6.988;2024-02-26T11:51:26;10.60;84.00
10171;DHT22;5127;50.922;6.988;2024-02-26T11:53:54;10.60;84.00
10171;DHT22;5127;50.922;6.988;2024-02-26T11:56:25;10.70;84.40
10171;DHT22;5127;50.922;6.988;2024-02-26T11:59:00;10.70;84.20
10171;DHT22;5127;50.922;6.988;2024-02-26T12:01:39;10.80;84.00
10171;DHT22;5127;50.922;6.988;2024-02-26T12:04:08;10.80;83.90
10171;DHT22;5127;50.922;6.988;2024-02-26T12:06:42;10.80;84.30
10171;DHT22;5127;50.922;6.988;2024-02-26T12:09:09;10.90;84.30
10171;DHT22;5127;50.922;6.988;2024-02-26T12:11:40;10.90;84.60
10171;DHT22;5127;50.922;6.988;2024-02-26T12:14:09;10.90;84.70
10171;DHT22;5127;50.922;6.988;2024-02-26T12:16:38;11.00;84.80
10171;DHT22;5127;50.922;6.988;2024-02-26T12:19:09;11.00;84.70
10171;DHT22;5127;50.922;6.988;2024-02-26T12:21:37;11.00;84.50
10171;DHT22;5127;50.922;6.988;2024-02-26T12:24:10;11.10;84.70
10171;DHT22;5127;50.922;6.988;2024-02-26T12:26:38;11.10;84.30
10171;DHT22;5127;50.922;6.988;2024-02-26T12:29:12;11.10;84.50
10171;DHT22;5127;50.922;6.988;2024-02-26T12:31:40;11.20;84.00
10171;DHT22;5127;50.922;6.988;2024-02-26T12:34:09;11.20;84.40
10171;DHT22;5127;50.922;6.988;2024-02-26T12:36:37;11.20;84.10
10171;DHT22;5127;50.922;6.988;2024-02-26T12:39:06;11.20;84.00
10171;DHT22;5127;50.922;6.988;2024-02-26T12:41:35;11.20;83.70
10171;DHT22;5127;50.922;6.988;2024-02-26T12:44:03;11.20;83.60
10171;DHT22;5127;50.922;6.988;2024-02-26T12:46:34;11.10;83.50
10171;DHT22;5127;50.922;6.988;2024-02-26T12:49:01;11.10;83.60
10171;DHT22;5127;50.922;6.988;2024-02-26T12:51:29;11.10;83.70
10171;DHT22;5127;50.922;6.988;2024-02-26T12:53:56;11.10;83.70
10171;DHT22;5127;50.922;6.988;2024-02-26T12:56:25;11.10;83.80
10171;DHT22;5127;50.922;6.988;2024-02-26T12:58:53;11.10;83.90
10171;DHT22;5127;50.922;6.988;2024-02-26T13:01:23;11.10;84.00
10171;DHT22;5127;50.922;6.988;2024-02-26T13:03:52;11.10;84.10
10171;DHT22;5127;50.922;6.988;2024-02-26T13:06:21;11.10;84.10
10171;DHT22;5127;50.922;6.988;2024-02-26T13:08:49;11.20;84.30
10171;DHT22;5127;50.922;6.988;2024-02-26T13:11:16;11.20;84.20
10171;DHT22;5127;50.922;6.988;2024-02-26T13:13:47;11.20;84.30
10171;DHT22;5127;50.922;6.988;2024-02-26T13:16:15;11.20;84.10
10171;DHT22;5127;50.922;6.988;2024-02-26T13:18:42;11.30;84.50
10171;DHT22;5127;50.922;6.988;2024-02-26T13:21:13;11.30;84.40
10171;DHT22;5127;50.922;6.988;2024-02-26T13:23:41;11.30;84.10
10171;DHT22;5127;50.922;6.988;2024-02-26T13:26:11;11.30;84.20
10171;DHT22;5127;50.922;6.988;2024-02-26T13:28:39;11.30;84.20
10171;DHT22;5127;50.922;6.988;2024-02-26T13:31:09;11.30;84.50
10171;DHT22;5127;50.922;6.988;2024-02-26T13:33:36;11.40;84.40
10171;DHT22;5127;50.922;6.988;2024-02-26T13:36:04;11.40;84.60
10171;DHT22;5127;50.922;6.988;2024-02-26T13:38:33;11.40;84.60
10171;DHT22;5127;50.922;6.988;2024-02-26T13:41:02;11.40;84.60
10171;DHT22;5127;50.922;6.988;2024-02-26T13:43:29;11.50;84.60
10171;DHT22;5127;50.922;6.988;2024-02-26T13:45:56;11.50;84.50
10171;DHT22;5127;50.922;6.988;2024-02-26T13:48:24;11.50;84.30
10171;DHT22;5127;50.922;6.988;2024-02-26T13:50:52;11.50;84.70
10171;DHT22;5127;50.922;6.988;2024-02-26T13:53:19;11.50;84.00
10171;DHT22;5127;50.922;6.988;2024-02-26T13:55:48;11.50;84.00
10171;DHT22;5127;50.922;6.988;2024-02-26T13:58:15;11.50;84.00
10171;DHT22;5127;50.922;6.988;2024-02-26T14:00:46;11.50;84.10
10171;DHT22;5127;50.922;6.988;2024-02-26T14:03:13;11.50;83.90
10171;DHT22;5127;50.922;6.988;2024-02-26T14:05:42;11.50;83.90
10171;DHT22;5127;50.922;6.988;2024-02-26T14:08:09;11.50;83.50
10171;DHT22;5127;50.922;6.988;2024-02-26T14:10:36;11.50;83.60
10171;DHT22;5127;50.922;6.988;2024-02-26T14:13:05;11.40;83.40
10171;DHT22;5127;50.922;6.988;2024-02-26T14:15:33;11.50;83.50
10171;DHT22;5127;50.922;6.988;2024-02-26T14:18:01;11.40;83.50
10171;DHT22;5127;50.922;6.988;2024-02-26T14:20:30;11.40;83.60
10171;DHT22;5127;50.922;6.988;2024-02-26T14:22:57;11.40;83.80
10171;DHT22;5127;50.922;6.988;2024-02-26T14:25:25;11.40;83.80
10171;DHT22;5127;50.922;6.988;2024-02-26T14:27:52;11.40;83.60
10171;DHT22;5127;50.922;6.988;2024-02-26T14:30:21;11.40;83.80
10171;DHT22;5127;50.922;6.988;2024-02-26T14:32:48;11.40;83.50
10171;DHT22;5127;50.922;6.988;2024-02-26T14:35:15;11.50;83.60
10171;DHT22;5127;50.922;6.988;2024-02-26T14:37:43;11.50;83.50
10171;DHT22;5127;50.922;6.988;2024-02-26T14:40:12;11.40;83.50
10171;DHT22;5127;50.922;6.988;2024-02-26T14:42:40;11.50;84.40
10171;DHT22;5127;50.922;6.988;2024-02-26T14:45:08;11.40;83.70
10171;DHT22;5127;50.922;6.988;2024-02-26T14:47:38;11.40;83.60
10171;DHT22;5127;50.922;6.988;2024-02-26T14:50:11;11.40;83.50
10171;DHT22;5127;50.922;6.988;2024-02-26T14:52:39;11.40;83.40
10171;DHT22;5127;50.922;6.988;2024-02-26T14:55:09;11.40;83.80
10171;DHT22;5127;50.922;6.988;2024-02-26T14:57:36;11.40;83.50
10171;DHT22;5127;50.922;6.988;2024-02-26T15:00:04;11.50;83.80
10171;DHT22;5127;50.922;6.988;2024-02-26T15:02:33;11.40;83.80
10171;DHT22;5127;50.922;6.988;2024-02-26T15:05:05;11.40;83.90
10171;DHT22;5127;50.922;6.988;2024-02-26T15:07:34;11.50;83.80
10171;DHT22;5127;50.922;6.988;2024-02-26T15:10:02;11.50;84.00
10171;DHT22;5127;50.922;6.988;2024-02-26T15:12:30;11.50;84.00
10171;DHT22;5127;50.922;6.988;2024-02-26T15:14:58;11.50;84.10
10171;DHT22;5127;50.922;6.988;2024-02-26T15:17:26;11.50;84.10
10171;DHT22;5127;50.922;6.988;2024-02-26T15:19:54;11.60;84.10
10171;DHT22;5127;50.922;6.988;2024-02-26T15:22:24;11.50;83.90
10171;DHT22;5127;50.922;6.988;2024-02-26T15:24:52;11.50;83.70
10171;DHT22;5127;50.922;6.988;2024-02-26T15:27:20;11.60;83.80
10171;DHT22;5127;50.922;6.988;2024-02-26T15:29:47;11.50;83.60
10171;DHT22;5127;50.922;6.988;2024-02-26T15:32:15;11.50;83.70
10171;DHT22;5127;50.922;6.988;2024-02-26T15:34:42;11.50;83.70
10171;DHT22;5127;50.922;6.988;2024-02-26T15:37:11;11.50;83.70
10171;DHT22;5127;50.922;6.988;2024-02-26T15:39:40;11.50;83.70
10171;DHT22;5127;50.922;6.988;2024-02-26T15:42:07;11.50;83.80
10171;DHT22;5127;50.922;6.988;2024-02-26T15:44:37;11.50;83.90
10171;DHT22;5127;50.922;6.988;2024-02-26T15:47:04;11.50;83.60
10171;DHT22;5127;50.922;6.988;2024-02-26T15:49:32;11.50;84.30
10171;DHT22;5127;50.922;6.988;2024-02-26T15:51:59;11.50;83.60
10171;DHT22;5127;50.922;6.988;2024-02-26T15:54:27;11.50;84.40
10171;DHT22;5127;50.922;6.988;2024-02-26T15:56:56;11.50;83.80